createdAt,value
2023-05-20T00:00:33.712Z,67.75
2023-05-20T00:03:00.961Z,68.06
2023-05-20T00:05:27.570Z,67.59
2023-05-20T00:07:54.107Z,67.70
2023-05-20T00:10:20.550Z,68.27
2023-05-20T00:12:47.019Z,68.07
2023-05-20T00:15:13.491Z,68.21
2023-05-20T00:17:40.032Z,68.11
2023-05-20T00:20:07.301Z,68.00
2023-05-20T00:22:33.781Z,67.97
2023-05-20T00:25:00.266Z,68.04
2023-05-20T00:27:27.162Z,67.51
2023-05-20T00:29:53.637Z,67.58
2023-05-20T00:32:20.365Z,67.06
2023-05-20T00:34:57.218Z,67.61
2023-05-20T00:37:24.127Z,67.66
2023-05-20T00:39:50.592Z,67.86
2023-05-20T00:42:24.486Z,67.72
2023-05-20T00:44:51.415Z,67.65
2023-05-20T00:47:19.685Z,67.19
2023-05-20T00:49:49.633Z,67.40
2023-05-20T00:52:19.089Z,67.80
2023-05-20T00:54:46.107Z,67.72
2023-05-20T00:57:13.727Z,67.26
2023-05-20T00:59:41.851Z,67.34
2023-05-20T01:02:10.049Z,67.39
2023-05-20T01:04:36.927Z,67.99
2023-05-20T01:07:06.061Z,67.49
2023-05-20T01:09:33.437Z,67.99
2023-05-20T01:12:10.922Z,67.88
2023-05-20T01:15:11.221Z,66.95
2023-05-20T01:17:47.577Z,67.01
2023-05-20T01:20:15.391Z,67.11
2023-05-20T01:22:49.253Z,67.16
2023-05-20T01:25:16.058Z,66.81
2023-05-20T01:27:42.699Z,66.23
2023-05-20T01:30:09.825Z,66.73
2023-05-20T01:32:42.945Z,66.63
2023-05-20T01:35:10.100Z,66.57
2023-05-20T01:37:39.534Z,66.88
2023-05-20T01:40:08.632Z,66.74
2023-05-20T01:42:36.589Z,66.58
2023-05-20T01:45:03.702Z,66.12
2023-05-20T01:47:31.171Z,66.53
2023-05-20T01:49:57.708Z,66.63
2023-05-20T01:52:24.203Z,66.25
2023-05-20T01:54:53.712Z,66.67
2023-05-20T01:57:23.433Z,66.66
2023-05-20T01:59:51.663Z,66.86
2023-05-20T02:02:18.452Z,66.79
2023-05-20T02:04:49.558Z,67.14
2023-05-20T02:07:18.653Z,66.84
2023-05-20T02:09:45.992Z,67.48
2023-05-20T02:12:16.757Z,67.09
2023-05-20T02:14:47.483Z,67.15
2023-05-20T02:17:19.554Z,67.59
2023-05-20T02:19:46.978Z,67.26
2023-05-20T02:22:14.507Z,66.98
2023-05-20T02:24:43.595Z,67.21
2023-05-20T02:27:10.749Z,67.03
2023-05-20T02:29:37.324Z,66.99
2023-05-20T02:32:04.339Z,67.27
2023-05-20T02:34:33.312Z,67.61
2023-05-20T02:36:59.917Z,67.74
2023-05-20T02:39:26.609Z,67.54
2023-05-20T02:41:53.096Z,67.50
2023-05-20T02:44:19.893Z,67.53
2023-05-20T02:46:47.960Z,67.80
2023-05-20T02:49:14.478Z,68.10
2023-05-20T02:51:41.213Z,68.17
2023-05-20T02:54:07.816Z,68.05
2023-05-20T02:56:34.408Z,68.52
2023-05-20T02:59:01.740Z,68.08
2023-05-20T03:01:29.601Z,68.74
2023-05-20T03:03:56.222Z,68.68
2023-05-20T03:06:22.866Z,68.85
2023-05-20T03:08:49.710Z,68.37
2023-05-20T03:11:16.250Z,68.81
2023-05-20T03:13:42.827Z,69.10
2023-05-20T03:16:09.419Z,68.81
2023-05-20T03:18:36.116Z,68.84
2023-05-20T03:21:02.663Z,69.19
2023-05-20T03:23:29.726Z,69.28
2023-05-20T03:25:56.242Z,69.37
2023-05-20T03:28:22.707Z,69.40
2023-05-20T03:30:49.725Z,69.47
2023-05-20T03:33:16.982Z,69.22
2023-05-20T03:35:43.468Z,69.62
2023-05-20T03:38:09.984Z,69.64
2023-05-20T03:40:38.279Z,69.96
2023-05-20T03:43:05.584Z,69.72
2023-05-20T03:45:34.568Z,70.57
2023-05-20T03:48:07.031Z,70.73
2023-05-20T03:50:34.974Z,70.77
2023-05-20T03:53:01.619Z,70.63
2023-05-20T03:55:33.947Z,70.81
2023-05-20T03:58:01.336Z,70.97
2023-05-20T04:00:30.478Z,70.89
2023-05-20T04:02:57.199Z,70.71
2023-05-20T04:05:24.813Z,71.37
2023-05-20T04:07:51.333Z,71.64
2023-05-20T04:10:20.519Z,71.37
2023-05-20T04:12:47.023Z,71.38
2023-05-20T04:15:14.694Z,71.23
2023-05-20T04:17:50.473Z,71.48
2023-05-20T04:20:17.305Z,71.45
2023-05-20T04:22:44.466Z,72.02
2023-05-20T04:25:12.579Z,71.88
2023-05-20T04:27:39.675Z,71.90
2023-05-20T04:30:06.976Z,72.08
2023-05-20T04:32:38.509Z,72.25
2023-05-20T04:35:11.447Z,72.53
2023-05-20T04:37:40.483Z,73.32
2023-05-20T04:40:09.133Z,73.18
2023-05-20T04:42:35.670Z,72.91
2023-05-20T04:45:04.419Z,72.97
2023-05-20T04:47:31.667Z,72.50
2023-05-20T04:49:58.200Z,73.19
2023-05-20T04:52:24.929Z,72.77
2023-05-20T04:54:52.136Z,72.42
2023-05-20T04:57:22.146Z,72.05
2023-05-20T04:59:48.632Z,72.93
2023-05-20T05:02:15.135Z,72.19
2023-05-20T05:04:41.726Z,73.15
2023-05-20T05:07:08.397Z,72.56
2023-05-20T05:09:35.081Z,72.27
2023-05-20T05:12:02.693Z,72.19
2023-05-20T05:14:29.223Z,72.10
2023-05-20T05:16:55.863Z,71.85
2023-05-20T05:19:22.766Z,72.02
2023-05-20T05:21:49.543Z,72.39
2023-05-20T05:24:16.346Z,71.60
2023-05-20T05:26:43.046Z,70.80
2023-05-20T05:29:11.622Z,71.91
2023-05-20T05:31:38.471Z,72.08
2023-05-20T05:34:04.957Z,71.49
2023-05-20T05:36:33.354Z,71.51
2023-05-20T05:39:00.058Z,72.23
2023-05-20T05:41:26.766Z,72.86
2023-05-20T05:43:54.122Z,72.53
2023-05-20T05:46:20.719Z,72.00
2023-05-20T05:48:50.463Z,72.55
2023-05-20T05:51:18.076Z,71.93
2023-05-20T05:53:46.216Z,72.32
2023-05-20T05:56:12.748Z,72.63
2023-05-20T05:58:39.888Z,72.48
2023-05-20T06:01:07.092Z,72.34
2023-05-20T06:03:33.825Z,72.54
2023-05-20T06:06:00.424Z,72.71
2023-05-20T06:08:27.178Z,72.51
2023-05-20T06:10:53.770Z,71.86
2023-05-20T06:13:20.410Z,72.14
2023-05-20T06:15:48.875Z,71.86
2023-05-20T06:18:16.801Z,72.48
2023-05-20T06:20:43.444Z,72.40
2023-05-20T06:23:10.040Z,72.67
2023-05-20T06:25:48.698Z,72.90
2023-05-20T06:28:15.245Z,72.63
2023-05-20T06:30:42.321Z,72.21
2023-05-20T06:33:08.936Z,72.19
2023-05-20T06:35:35.737Z,72.43
2023-05-20T06:38:04.625Z,72.52
2023-05-20T06:40:31.222Z,72.66
2023-05-20T06:42:58.027Z,72.74
2023-05-20T06:45:44.820Z,72.32
2023-05-20T06:48:20.879Z,72.76
2023-05-20T06:50:47.340Z,72.60
2023-05-20T06:53:13.829Z,72.49
2023-05-20T06:55:40.358Z,72.73
2023-05-20T06:58:07.224Z,73.25
2023-05-20T07:00:34.397Z,72.58
2023-05-20T07:03:00.882Z,72.98
2023-05-20T07:05:28.999Z,72.02
2023-05-20T07:07:55.875Z,72.38
2023-05-20T07:10:22.442Z,72.03
2023-05-20T07:12:49.176Z,71.55
2023-05-20T07:15:15.879Z,71.06
2023-05-20T07:17:43.192Z,71.19
2023-05-20T07:20:10.242Z,71.94
2023-05-20T07:22:36.914Z,71.26
2023-05-20T07:25:14.634Z,70.92
2023-05-20T07:27:41.181Z,71.01
2023-05-20T07:30:08.852Z,70.64
2023-05-20T07:32:36.754Z,70.75
2023-05-20T07:35:03.586Z,69.47
2023-05-20T07:37:30.233Z,70.07
2023-05-20T07:39:56.818Z,69.84
2023-05-20T07:42:23.305Z,69.64
2023-05-20T07:44:54.663Z,69.13
2023-05-20T07:47:22.067Z,70.01
2023-05-20T07:49:48.727Z,69.29
2023-05-20T07:52:15.832Z,69.05
2023-05-20T07:54:42.405Z,68.28
2023-05-20T07:57:09.306Z,68.99
2023-05-20T07:59:36.015Z,69.56
2023-05-20T08:02:03.073Z,68.45
2023-05-20T08:04:29.797Z,69.14
2023-05-20T08:06:57.237Z,68.53
2023-05-20T08:09:38.613Z,69.14
2023-05-20T08:12:06.066Z,68.63
2023-05-20T08:14:32.636Z,68.02
2023-05-20T08:16:59.952Z,67.25
2023-05-20T08:19:26.899Z,67.16
2023-05-20T08:21:54.330Z,66.29
2023-05-20T08:24:21.241Z,65.62
2023-05-20T08:26:48.291Z,65.69
2023-05-20T08:29:16.424Z,65.73
2023-05-20T08:31:44.037Z,65.76
2023-05-20T08:34:11.522Z,65.65
2023-05-20T08:36:38.298Z,65.84
2023-05-20T08:39:04.747Z,65.34
2023-05-20T08:41:31.396Z,65.05
2023-05-20T08:44:00.772Z,65.07
2023-05-20T08:46:28.186Z,65.58
2023-05-20T08:48:56.427Z,65.31
2023-05-20T08:51:26.681Z,65.78
2023-05-20T08:53:53.915Z,64.90
2023-05-20T08:56:21.944Z,63.02
2023-05-20T08:58:48.732Z,63.25
2023-05-20T09:01:15.338Z,63.92
2023-05-20T09:03:41.888Z,63.08
2023-05-20T09:06:09.437Z,63.12
2023-05-20T09:08:36.517Z,63.42
2023-05-20T09:11:03.563Z,62.59
2023-05-20T09:13:32.630Z,62.84
2023-05-20T09:16:02.826Z,62.97
2023-05-20T09:18:30.180Z,63.27
2023-05-20T09:20:57.064Z,62.33
2023-05-20T09:23:25.016Z,61.50
2023-05-20T09:25:53.013Z,61.79
2023-05-20T09:28:25.044Z,60.88
2023-05-20T09:30:51.834Z,62.21
2023-05-20T09:33:18.415Z,61.80
2023-05-20T09:35:44.959Z,61.53
2023-05-20T09:38:11.750Z,61.76
2023-05-20T09:40:40.288Z,61.08
2023-05-20T09:43:08.254Z,60.66
2023-05-20T09:45:37.597Z,60.08
2023-05-20T09:48:08.972Z,61.36
2023-05-20T09:50:35.688Z,60.38
2023-05-20T09:53:04.089Z,60.40
2023-05-20T09:55:31.269Z,59.26
2023-05-20T09:58:01.807Z,58.66
2023-05-20T10:00:28.407Z,59.26
2023-05-20T10:02:55.145Z,58.94
2023-05-20T10:05:29.568Z,57.92
2023-05-20T10:08:26.966Z,56.52
2023-05-20T10:11:30.996Z,56.39
2023-05-20T10:14:22.172Z,55.39
2023-05-20T10:17:00.634Z,55.84
2023-05-20T10:19:30.134Z,54.78
2023-05-20T10:22:04.697Z,55.86
2023-05-20T10:24:34.603Z,55.89
2023-05-20T10:27:03.501Z,55.63
2023-05-20T10:29:30.589Z,57.12
2023-05-20T10:31:57.197Z,56.29
2023-05-20T10:34:23.927Z,56.17
2023-05-20T10:36:53.783Z,55.13
2023-05-20T10:39:27.315Z,55.50
2023-05-20T10:41:53.815Z,55.49
2023-05-20T10:44:20.374Z,57.22
2023-05-20T10:47:06.731Z,56.26
2023-05-20T10:49:34.061Z,57.32
2023-05-20T10:52:00.733Z,55.91
2023-05-20T10:54:27.416Z,56.32
2023-05-20T10:56:54.162Z,54.93
2023-05-20T10:59:21.758Z,55.01
2023-05-20T11:01:48.394Z,54.87
2023-05-20T11:04:17.114Z,55.72
2023-05-20T11:06:52.012Z,56.78
2023-05-20T11:09:18.480Z,55.56
2023-05-20T11:11:45.085Z,54.00
2023-05-20T11:14:15.142Z,54.30
2023-05-20T11:16:42.402Z,53.41
2023-05-20T11:19:14.369Z,54.31
2023-05-20T11:21:45.136Z,54.45
2023-05-20T11:24:12.874Z,53.28
2023-05-20T11:26:40.123Z,51.75
2023-05-20T11:29:07.656Z,51.71
2023-05-20T11:31:34.314Z,52.23
2023-05-20T11:34:04.431Z,50.66
2023-05-20T11:36:31.153Z,51.54
2023-05-20T11:38:58.928Z,52.34
2023-05-20T11:41:26.577Z,53.25
2023-05-20T11:43:59.845Z,52.86
2023-05-20T11:46:27.725Z,52.07
2023-05-20T11:48:55.235Z,51.37
2023-05-20T11:51:28.161Z,51.02
2023-05-20T11:54:01.076Z,51.34
2023-05-20T11:56:31.499Z,51.55
2023-05-20T11:58:59.835Z,50.78
2023-05-20T12:01:28.383Z,51.86
2023-05-20T12:03:55.375Z,52.14
2023-05-20T12:06:22.020Z,51.31
2023-05-20T12:08:48.555Z,50.39
2023-05-20T12:11:15.279Z,49.70
2023-05-20T12:13:41.791Z,50.05
2023-05-20T12:16:08.362Z,50.23
2023-05-20T12:18:34.903Z,50.29
2023-05-20T12:21:01.974Z,50.02
2023-05-20T12:23:30.728Z,50.71
2023-05-20T12:25:57.198Z,51.34
2023-05-20T12:28:23.675Z,50.45
2023-05-20T12:30:50.125Z,50.67
2023-05-20T12:33:16.684Z,48.93
2023-05-20T12:35:43.604Z,50.02
2023-05-20T12:38:10.101Z,49.26
2023-05-20T12:40:37.390Z,48.55
2023-05-20T12:43:05.333Z,48.61
2023-05-20T12:45:31.809Z,48.69
2023-05-20T12:47:58.729Z,48.67
2023-05-20T12:50:25.827Z,48.14
2023-05-20T12:52:52.441Z,46.69
2023-05-20T12:55:19.121Z,45.40
2023-05-20T12:57:47.873Z,44.69
2023-05-20T13:00:15.176Z,43.68
2023-05-20T13:02:42.871Z,41.91
2023-05-20T13:05:10.624Z,39.69
2023-05-20T13:07:37.353Z,37.47
2023-05-20T13:10:04.122Z,38.07
2023-05-20T13:12:30.689Z,38.02
2023-05-20T13:14:57.221Z,38.05
2023-05-20T13:17:23.732Z,35.12
2023-05-20T13:19:50.412Z,37.81
2023-05-20T13:22:16.976Z,37.76
2023-05-20T13:24:43.531Z,38.06
2023-05-20T13:27:10.146Z,38.12
2023-05-20T13:29:36.613Z,34.59
2023-05-20T13:32:03.901Z,36.93
2023-05-20T13:34:31.560Z,36.59
2023-05-20T13:36:58.122Z,38.11
2023-05-20T13:39:24.993Z,38.14
2023-05-20T13:41:53.418Z,38.72
2023-05-20T13:44:19.961Z,39.68
2023-05-20T13:46:46.596Z,39.78
2023-05-20T13:49:13.117Z,40.71
2023-05-20T13:51:39.583Z,40.56
2023-05-20T13:54:06.645Z,40.25
2023-05-20T13:56:33.840Z,41.91
2023-05-20T13:59:00.268Z,41.70
2023-05-20T14:01:33.010Z,43.38
2023-05-20T14:03:59.723Z,43.84
2023-05-20T14:06:27.497Z,45.14
2023-05-20T14:08:54.896Z,44.35
2023-05-20T14:11:21.787Z,44.14
2023-05-20T14:13:48.340Z,44.18
2023-05-20T14:16:15.026Z,45.60
2023-05-20T14:18:41.710Z,44.98
2023-05-20T14:21:08.231Z,44.77
2023-05-20T14:23:34.719Z,45.66
2023-05-20T14:26:01.215Z,45.67
2023-05-20T14:28:27.710Z,45.35
2023-05-20T14:30:54.591Z,45.65
2023-05-20T14:33:21.060Z,45.67
2023-05-20T14:35:47.610Z,43.40
2023-05-20T14:38:14.138Z,43.11
2023-05-20T14:40:40.638Z,43.36
2023-05-20T14:43:07.109Z,43.86
2023-05-20T14:45:33.562Z,45.24
2023-05-20T14:48:00.091Z,45.13
2023-05-20T14:50:26.632Z,45.74
2023-05-20T14:52:53.098Z,45.94
2023-05-20T14:55:19.541Z,46.85
2023-05-20T14:57:46.188Z,47.16
2023-05-20T15:00:13.054Z,48.03
2023-05-20T15:02:39.634Z,47.22
2023-05-20T15:05:06.619Z,47.18
2023-05-20T15:07:33.143Z,48.34
2023-05-20T15:09:59.638Z,47.51
2023-05-20T15:12:26.091Z,47.27
2023-05-20T15:14:52.679Z,47.38
2023-05-20T15:17:19.147Z,48.83
2023-05-20T15:19:45.812Z,45.98
2023-05-20T15:22:12.278Z,46.25
2023-05-20T15:24:38.767Z,44.72
2023-05-20T15:27:05.646Z,42.93
2023-05-20T15:29:32.137Z,41.38
2023-05-20T15:31:58.666Z,42.84
2023-05-20T15:34:25.156Z,43.07
2023-05-20T15:36:51.877Z,41.78
2023-05-20T15:39:18.332Z,39.45
2023-05-20T15:41:47.835Z,39.79
2023-05-20T15:44:14.367Z,38.78
2023-05-20T15:46:40.982Z,41.06
2023-05-20T15:49:07.496Z,40.59
2023-05-20T15:51:33.994Z,43.11
2023-05-20T15:54:00.548Z,43.33
2023-05-20T15:56:27.081Z,43.34
2023-05-20T15:58:53.586Z,43.37
2023-05-20T16:01:22.032Z,43.02
2023-05-20T16:03:49.041Z,44.99
2023-05-20T16:06:15.630Z,43.67
2023-05-20T16:08:42.087Z,42.63
2023-05-20T16:11:09.480Z,42.75
2023-05-20T16:13:36.144Z,40.76
2023-05-20T16:16:02.817Z,42.48
2023-05-20T16:18:29.703Z,43.34
2023-05-20T16:20:57.531Z,42.25
2023-05-20T16:23:24.336Z,42.99
2023-05-20T16:25:51.386Z,41.68
2023-05-20T16:28:18.032Z,41.47
2023-05-20T16:30:44.560Z,41.81
2023-05-20T16:33:11.279Z,42.25
2023-05-20T16:35:37.856Z,42.25
2023-05-20T16:38:04.358Z,41.22
2023-05-20T16:40:31.011Z,40.96
2023-05-20T16:42:57.680Z,42.00
2023-05-20T16:45:24.241Z,42.04
2023-05-20T16:47:50.938Z,41.35
2023-05-20T16:50:17.537Z,41.49
2023-05-20T16:52:44.115Z,41.49
2023-05-20T16:55:10.685Z,41.86
2023-05-20T16:57:37.246Z,42.08
2023-05-20T17:00:11.341Z,42.07
2023-05-20T17:02:37.997Z,43.51
2023-05-20T17:05:04.860Z,43.46
2023-05-20T17:07:31.429Z,42.83
2023-05-20T17:09:58.000Z,44.33
2023-05-20T17:12:24.586Z,45.09
2023-05-20T17:14:51.192Z,45.35
2023-05-20T17:17:17.704Z,45.17
2023-05-20T17:19:44.241Z,46.05
2023-05-20T17:22:10.777Z,46.07
2023-05-20T17:24:37.247Z,47.36
2023-05-20T17:27:05.890Z,47.08
2023-05-20T17:29:32.392Z,47.73
2023-05-20T17:31:58.947Z,47.66
2023-05-20T17:34:25.540Z,48.27
2023-05-20T17:36:52.012Z,48.67
2023-05-20T17:39:18.606Z,48.84
2023-05-20T17:41:45.554Z,49.39
2023-05-20T17:44:12.017Z,49.09
2023-05-20T17:46:38.677Z,49.63
2023-05-20T17:49:05.232Z,49.97
2023-05-20T17:51:31.838Z,50.18
2023-05-20T17:53:58.470Z,51.46
2023-05-20T17:56:26.399Z,50.02
2023-05-20T17:58:54.227Z,50.45
2023-05-20T18:01:22.676Z,51.12
2023-05-20T18:03:49.442Z,50.54
2023-05-20T18:06:17.936Z,50.92
2023-05-20T18:08:44.570Z,51.49
2023-05-20T18:11:11.124Z,51.48
2023-05-20T18:13:37.589Z,52.00
2023-05-20T18:16:04.458Z,52.91
2023-05-20T18:18:30.975Z,52.67
2023-05-20T18:20:57.460Z,53.72
2023-05-20T18:23:23.931Z,54.44
2023-05-20T18:25:50.602Z,55.00
2023-05-20T18:28:17.240Z,55.51
2023-05-20T18:30:43.814Z,56.48
2023-05-20T18:33:10.839Z,56.57
2023-05-20T18:35:37.555Z,57.38
2023-05-20T18:38:04.025Z,58.21
2023-05-20T18:40:30.806Z,58.71
2023-05-20T18:42:57.377Z,58.79
2023-05-20T18:45:24.899Z,59.16
2023-05-20T18:47:53.856Z,58.70
2023-05-20T18:50:20.590Z,59.14
2023-05-20T18:52:47.097Z,59.30
2023-05-20T18:55:13.585Z,59.51
2023-05-20T18:57:40.148Z,59.68
2023-05-20T19:00:10.734Z,59.90
2023-05-20T19:02:39.075Z,60.06
2023-05-20T19:05:11.082Z,60.65
2023-05-20T19:07:38.952Z,60.85
2023-05-20T19:10:06.216Z,60.85
2023-05-20T19:12:32.768Z,61.18
2023-05-20T19:15:00.305Z,61.60
2023-05-20T19:17:26.870Z,61.94
2023-05-20T19:19:53.385Z,61.86
2023-05-20T19:22:19.882Z,62.32
2023-05-20T19:24:46.376Z,62.06
2023-05-20T19:27:12.887Z,62.78
2023-05-20T19:29:39.429Z,63.19
2023-05-20T19:32:06.288Z,63.56
2023-05-20T19:34:32.783Z,63.52
2023-05-20T19:36:59.309Z,64.09
2023-05-20T19:39:26.740Z,64.41
2023-05-20T19:41:53.482Z,64.27
2023-05-20T19:44:20.015Z,64.59
2023-05-20T19:46:47.087Z,64.59
2023-05-20T19:49:13.593Z,64.99
2023-05-20T19:51:40.152Z,65.46
2023-05-20T19:54:06.672Z,65.39
2023-05-20T19:56:33.183Z,65.34
2023-05-20T19:59:01.645Z,65.54
2023-05-20T20:01:28.630Z,65.63
2023-05-20T20:03:55.344Z,65.83
2023-05-20T20:06:21.847Z,65.69
2023-05-20T20:08:48.372Z,65.81
2023-05-20T20:11:15.117Z,65.90
2023-05-20T20:13:41.666Z,65.88
2023-05-20T20:16:08.575Z,65.99
2023-05-20T20:18:35.132Z,66.29
2023-05-20T20:21:05.904Z,66.53
2023-05-20T20:23:32.802Z,66.28
2023-05-20T20:25:59.253Z,66.63
2023-05-20T20:28:25.738Z,66.34
2023-05-20T20:30:52.256Z,67.05
2023-05-20T20:33:19.503Z,67.21
2023-05-20T20:35:46.613Z,66.75
2023-05-20T20:38:13.402Z,67.09
2023-05-20T20:40:42.466Z,67.33
2023-05-20T20:43:10.409Z,67.15
2023-05-20T20:45:37.055Z,67.38
2023-05-20T20:48:05.422Z,67.31
2023-05-20T20:50:32.827Z,67.47
2023-05-20T20:52:59.306Z,67.64
2023-05-20T20:55:25.779Z,67.83
2023-05-20T20:57:52.262Z,67.92
2023-05-20T21:00:23.318Z,68.07
2023-05-20T21:02:50.123Z,68.58
2023-05-20T21:05:17.438Z,68.64
2023-05-20T21:07:49.642Z,68.58
2023-05-20T21:10:17.516Z,68.81
2023-05-20T21:12:44.018Z,68.97
2023-05-20T21:15:12.484Z,69.20
2023-05-20T21:17:39.089Z,69.24
2023-05-20T21:20:06.889Z,69.14
2023-05-20T21:22:33.456Z,69.15
2023-05-20T21:24:59.902Z,69.30
2023-05-20T21:27:26.373Z,69.60
2023-05-20T21:29:53.101Z,69.65
2023-05-20T21:32:19.604Z,70.17
2023-05-20T21:34:46.117Z,70.03
2023-05-20T21:37:12.645Z,70.10
2023-05-20T21:39:39.253Z,70.19
2023-05-20T21:42:06.674Z,70.09
2023-05-20T21:44:33.475Z,70.39
2023-05-20T21:47:00.086Z,69.88
2023-05-20T21:49:26.619Z,70.38
2023-05-20T21:51:53.093Z,70.62
2023-05-20T21:54:19.569Z,70.63
2023-05-20T21:56:46.048Z,70.48
2023-05-20T21:59:12.562Z,70.86
2023-05-20T22:01:39.040Z,70.96
2023-05-20T22:04:06.928Z,71.22
2023-05-20T22:06:35.971Z,70.89
2023-05-20T22:09:03.374Z,70.94
2023-05-20T22:11:30.225Z,71.12
2023-05-20T22:13:57.210Z,71.06
2023-05-20T22:16:24.700Z,71.05
2023-05-20T22:18:53.811Z,71.16
2023-05-20T22:21:21.376Z,71.32
2023-05-20T22:23:48.219Z,71.43
2023-05-20T22:26:14.810Z,71.06
2023-05-20T22:28:41.352Z,71.57
2023-05-20T22:31:07.873Z,71.49
2023-05-20T22:33:34.353Z,71.72
2023-05-20T22:36:01.041Z,71.65
2023-05-20T22:38:29.574Z,71.27
2023-05-20T22:40:56.157Z,71.64
2023-05-20T22:43:23.674Z,71.63
2023-05-20T22:45:50.169Z,71.73
2023-05-20T22:48:16.656Z,71.67
2023-05-20T22:50:43.108Z,72.00
2023-05-20T22:53:09.615Z,72.02
2023-05-20T22:55:38.720Z,72.12
2023-05-20T22:58:05.210Z,71.94
2023-05-20T23:00:32.131Z,72.19
2023-05-20T23:02:58.775Z,72.26
2023-05-20T23:05:25.595Z,72.43
2023-05-20T23:07:53.113Z,72.63
2023-05-20T23:10:20.195Z,72.63
2023-05-20T23:12:46.705Z,72.67
2023-05-20T23:15:13.171Z,72.56
2023-05-20T23:17:39.766Z,72.68
2023-05-20T23:20:14.361Z,72.78
2023-05-20T23:22:41.083Z,72.64
2023-05-20T23:25:07.993Z,72.96
2023-05-20T23:27:34.537Z,72.78
2023-05-20T23:30:01.089Z,72.88
2023-05-20T23:32:27.667Z,73.05
2023-05-20T23:34:55.125Z,73.14
2023-05-20T23:37:22.067Z,73.29
2023-05-20T23:39:48.616Z,72.66
2023-05-20T23:42:15.241Z,72.75
2023-05-20T23:44:41.730Z,73.36
2023-05-20T23:47:08.215Z,73.14
2023-05-20T23:49:34.787Z,73.37
2023-05-20T23:52:01.625Z,73.39
2023-05-20T23:54:28.208Z,74.24
2023-05-20T23:56:55.512Z,74.31
2023-05-20T23:59:22.399Z,74.07
